createdAt,value
2023-05-09T00:01:20.655Z,4.03
2023-05-09T00:03:47.711Z,3.73
2023-05-09T00:06:15.402Z,4.50
2023-05-09T00:08:42.047Z,4.10
2023-05-09T00:11:08.900Z,4.37
2023-05-09T00:13:35.745Z,3.73
2023-05-09T00:16:03.405Z,3.87
2023-05-09T00:18:31.026Z,3.80
2023-05-09T00:20:57.759Z,3.93
2023-05-09T00:23:24.395Z,3.90
2023-05-09T00:25:51.026Z,4.27
2023-05-09T00:28:17.611Z,4.17
2023-05-09T00:30:44.469Z,4.40
2023-05-09T00:33:11.411Z,4.80
2023-05-09T00:35:38.152Z,4.13
2023-05-09T00:38:04.796Z,4.17
2023-05-09T00:40:31.499Z,4.37
2023-05-09T00:42:59.826Z,4.77
2023-05-09T00:45:26.785Z,4.57
2023-05-09T00:47:53.672Z,4.40
2023-05-09T00:50:20.807Z,4.93
2023-05-09T00:52:47.512Z,5.07
2023-05-09T00:55:15.971Z,4.93
2023-05-09T00:57:42.928Z,4.50
2023-05-09T01:00:13.919Z,4.63
2023-05-09T01:02:42.920Z,4.47
2023-05-09T01:05:10.659Z,4.30
2023-05-09T01:07:58.513Z,4.40
2023-05-09T01:10:55.584Z,4.43
2023-05-09T01:13:25.854Z,4.60
2023-05-09T01:16:06.075Z,4.63
2023-05-09T01:18:45.704Z,4.37
2023-05-09T01:21:20.516Z,4.70
2023-05-09T01:24:21.875Z,4.67
2023-05-09T01:27:22.234Z,4.63
2023-05-09T01:29:56.618Z,5.70
2023-05-09T01:32:26.334Z,4.97
2023-05-09T01:34:55.872Z,5.67
2023-05-09T01:37:32.728Z,4.53
2023-05-09T01:40:06.573Z,4.47
2023-05-09T01:42:43.210Z,4.27
2023-05-09T01:45:12.307Z,4.63
2023-05-09T01:47:41.021Z,4.30
2023-05-09T01:50:10.702Z,5.00
2023-05-09T01:52:39.813Z,4.77
2023-05-09T01:55:07.530Z,4.90
2023-05-09T01:57:36.240Z,4.33
2023-05-09T02:00:04.978Z,4.90
2023-05-09T02:02:32.724Z,4.40
2023-05-09T02:05:00.677Z,4.53
2023-05-09T02:07:29.202Z,4.80
2023-05-09T02:09:57.400Z,5.43
2023-05-09T02:12:24.533Z,4.73
2023-05-09T02:14:51.322Z,4.67
2023-05-09T02:17:19.090Z,5.00
2023-05-09T02:19:45.889Z,4.87
2023-05-09T02:22:13.620Z,4.97
2023-05-09T02:24:41.254Z,5.10
2023-05-09T02:27:09.852Z,4.97
2023-05-09T02:29:41.642Z,5.30
2023-05-09T02:32:18.122Z,5.50
2023-05-09T02:34:46.051Z,5.80
2023-05-09T02:37:13.253Z,5.23
2023-05-09T02:39:40.430Z,5.17
2023-05-09T02:42:10.483Z,5.33
2023-05-09T02:44:38.735Z,5.20
2023-05-09T02:47:06.924Z,4.83
2023-05-09T02:49:33.945Z,5.20
2023-05-09T02:52:01.458Z,5.33
2023-05-09T02:54:28.307Z,5.57
2023-05-09T02:56:55.118Z,5.13
2023-05-09T02:59:21.805Z,5.83
2023-05-09T03:01:48.539Z,5.53
2023-05-09T03:04:16.418Z,6.37
2023-05-09T03:06:43.112Z,5.73
2023-05-09T03:09:10.029Z,5.40
2023-05-09T03:11:36.901Z,5.27
2023-05-09T03:14:04.313Z,5.80
2023-05-09T03:16:31.587Z,5.10
2023-05-09T03:18:58.324Z,5.07
2023-05-09T03:21:25.037Z,5.17
2023-05-09T03:23:51.679Z,5.03
2023-05-09T03:26:18.335Z,5.27
2023-05-09T03:28:45.854Z,5.23
2023-05-09T03:31:12.554Z,5.07
2023-05-09T03:33:39.179Z,5.23
2023-05-09T03:36:06.066Z,5.90
2023-05-09T03:38:32.668Z,4.97
2023-05-09T03:40:59.307Z,5.60
2023-05-09T03:43:26.337Z,5.37
2023-05-09T03:45:52.967Z,5.60
2023-05-09T03:48:19.559Z,5.43
2023-05-09T03:50:46.198Z,5.50
2023-05-09T03:53:12.794Z,5.90
2023-05-09T03:55:39.947Z,6.10
2023-05-09T03:58:07.227Z,5.30
2023-05-09T04:00:33.899Z,5.53
2023-05-09T04:03:00.745Z,6.47
2023-05-09T04:05:27.553Z,5.90
2023-05-09T04:07:54.179Z,5.90
2023-05-09T04:10:20.874Z,5.00
2023-05-09T04:12:47.483Z,5.47
2023-05-09T04:15:14.514Z,5.30
2023-05-09T04:17:41.416Z,5.77
2023-05-09T04:20:08.665Z,5.67
2023-05-09T04:22:36.132Z,5.60
2023-05-09T04:25:04.056Z,5.47
2023-05-09T04:27:30.919Z,5.40
2023-05-09T04:29:57.690Z,6.30
2023-05-09T04:32:24.721Z,6.40
2023-05-09T04:34:54.524Z,5.63
2023-05-09T04:37:21.392Z,6.00
2023-05-09T04:39:48.036Z,5.87
2023-05-09T04:42:14.668Z,6.17
2023-05-09T04:44:41.256Z,5.87
2023-05-09T04:47:07.834Z,5.63
2023-05-09T04:49:34.492Z,5.97
2023-05-09T04:52:01.109Z,6.10
2023-05-09T04:54:27.731Z,6.90
2023-05-09T04:57:00.306Z,6.10
2023-05-09T04:59:33.355Z,6.30
2023-05-09T05:02:00.113Z,6.60
2023-05-09T05:04:27.953Z,6.20
2023-05-09T05:06:54.626Z,5.83
2023-05-09T05:09:21.304Z,4.97
2023-05-09T05:11:59.557Z,5.70
2023-05-09T05:14:28.598Z,5.50
2023-05-09T05:16:55.437Z,5.40
2023-05-09T05:19:22.074Z,5.23
2023-05-09T05:21:48.732Z,5.70
2023-05-09T05:24:15.381Z,5.03
2023-05-09T05:26:42.047Z,5.27
2023-05-09T05:29:08.732Z,4.67
2023-05-09T05:31:36.209Z,5.43
2023-05-09T05:34:03.111Z,4.57
2023-05-09T05:36:29.736Z,4.70
2023-05-09T05:38:56.369Z,5.23
2023-05-09T05:41:23.391Z,4.90
2023-05-09T05:43:51.489Z,4.90
2023-05-09T05:46:19.601Z,4.83
2023-05-09T05:48:46.393Z,4.33
2023-05-09T05:51:12.994Z,4.13
2023-05-09T05:53:39.628Z,4.37
2023-05-09T05:56:06.590Z,4.10
2023-05-09T05:58:33.230Z,4.10
2023-05-09T06:00:59.827Z,6.53
2023-05-09T06:03:26.806Z,7.33
2023-05-09T06:05:53.586Z,6.27
2023-05-09T06:08:20.196Z,6.20
2023-05-09T06:10:46.834Z,6.80
2023-05-09T06:13:13.579Z,6.33
2023-05-09T06:15:40.370Z,6.43
2023-05-09T06:18:08.768Z,6.50
2023-05-09T06:20:36.051Z,6.90
2023-05-09T06:23:02.687Z,6.57
2023-05-09T06:25:29.286Z,6.70
2023-05-09T06:27:55.897Z,7.03
2023-05-09T06:30:26.386Z,5.80
2023-05-09T06:32:54.660Z,5.40
2023-05-09T06:35:24.564Z,6.03
2023-05-09T06:37:51.203Z,5.63
2023-05-09T06:40:17.909Z,5.83
2023-05-09T06:42:45.019Z,5.70
2023-05-09T06:45:12.006Z,5.77
2023-05-09T06:47:38.690Z,5.43
2023-05-09T06:50:05.916Z,5.83
2023-05-09T06:52:32.602Z,6.10
2023-05-09T06:54:59.334Z,5.90
2023-05-09T06:57:26.052Z,5.03
2023-05-09T06:59:52.761Z,4.93
2023-05-09T07:02:19.435Z,4.60
2023-05-09T07:04:46.121Z,5.00
2023-05-09T07:07:12.775Z,4.50
2023-05-09T07:09:39.410Z,3.80
2023-05-09T07:12:06.255Z,5.60
2023-05-09T07:14:32.912Z,4.67
2023-05-09T07:17:13.786Z,4.97
2023-05-09T07:19:46.145Z,4.10
2023-05-09T07:22:13.327Z,4.90
2023-05-09T07:24:40.030Z,4.80
2023-05-09T07:27:06.774Z,4.37
2023-05-09T07:29:33.477Z,4.93
2023-05-09T07:32:00.213Z,4.33
2023-05-09T07:34:27.033Z,4.10
2023-05-09T07:36:53.662Z,4.53
2023-05-09T07:39:20.438Z,3.80
2023-05-09T07:41:48.682Z,4.60
2023-05-09T07:44:16.745Z,4.20
2023-05-09T07:46:43.390Z,3.87
2023-05-09T07:49:10.130Z,3.93
2023-05-09T07:51:36.820Z,4.80
2023-05-09T07:54:03.606Z,4.00
2023-05-09T07:56:30.281Z,4.50
2023-05-09T07:58:56.877Z,3.57
2023-05-09T08:01:23.512Z,4.00
2023-05-09T08:03:50.288Z,4.13
2023-05-09T08:06:17.038Z,3.63
2023-05-09T08:08:43.688Z,3.90
2023-05-09T08:11:10.308Z,3.73
2023-05-09T08:13:37.020Z,3.77
2023-05-09T08:16:03.898Z,4.00
2023-05-09T08:18:30.651Z,3.43
2023-05-09T08:20:59.433Z,3.73
2023-05-09T08:23:26.752Z,3.77
2023-05-09T08:25:54.861Z,3.37
2023-05-09T08:28:24.758Z,3.60
2023-05-09T08:30:51.838Z,3.63
2023-05-09T08:33:18.717Z,3.87
2023-05-09T08:35:45.992Z,3.37
2023-05-09T08:38:12.585Z,3.80
2023-05-09T08:40:41.098Z,3.97
2023-05-09T08:43:08.548Z,3.60
2023-05-09T08:45:39.651Z,3.50
2023-05-09T08:48:07.198Z,3.13
2023-05-09T08:50:35.445Z,3.10
2023-05-09T08:53:02.397Z,3.23
2023-05-09T08:55:29.392Z,3.40
2023-05-09T08:57:57.670Z,3.67
2023-05-09T09:00:26.189Z,3.00
2023-05-09T09:02:54.130Z,3.03
2023-05-09T09:05:40.079Z,3.10
2023-05-09T09:08:09.593Z,2.80
2023-05-09T09:10:41.791Z,2.83
2023-05-09T09:13:10.033Z,2.53
2023-05-09T09:15:37.507Z,3.20
2023-05-09T09:18:08.978Z,2.47
2023-05-09T09:20:40.328Z,2.90
2023-05-09T09:23:12.224Z,3.00
2023-05-09T09:25:39.091Z,2.73
2023-05-09T09:28:05.914Z,2.90
2023-05-09T09:33:21.540Z,3.10
2023-05-09T09:35:49.963Z,2.53
2023-05-09T09:38:20.839Z,2.60
2023-05-09T09:40:58.079Z,2.80
2023-05-09T09:43:31.735Z,2.80
2023-05-09T09:46:05.361Z,2.90
2023-05-09T09:48:34.027Z,3.13
2023-05-09T09:51:11.216Z,2.53
2023-05-09T09:53:42.160Z,2.87
2023-05-09T09:56:09.555Z,2.73
2023-05-09T09:58:36.703Z,2.63
2023-05-09T10:01:08.864Z,2.43
2023-05-09T10:03:44.924Z,2.57
2023-05-09T10:06:13.567Z,2.60
2023-05-09T10:08:41.392Z,2.63
2023-05-09T10:11:09.765Z,2.50
2023-05-09T10:13:38.272Z,2.60
2023-05-09T10:16:05.998Z,2.50
2023-05-09T10:18:33.629Z,2.50
2023-05-09T10:21:06.346Z,2.53
2023-05-09T10:23:36.922Z,2.30
2023-05-09T10:26:22.877Z,2.60
2023-05-09T10:28:54.660Z,2.93
2023-05-09T10:31:28.839Z,2.87
2023-05-09T10:33:55.975Z,2.50
2023-05-09T10:36:23.771Z,2.60
2023-05-09T10:38:53.856Z,2.90
2023-05-09T10:41:24.368Z,2.40
2023-05-09T10:43:51.470Z,2.37
2023-05-09T10:46:18.449Z,2.53
2023-05-09T10:48:45.537Z,2.53
2023-05-09T10:51:13.017Z,2.83
2023-05-09T10:53:50.731Z,2.57
2023-05-09T10:56:30.527Z,2.80
2023-05-09T10:58:57.933Z,2.80
2023-05-09T11:01:32.608Z,2.60
2023-05-09T11:04:01.737Z,2.50
2023-05-09T11:06:48.900Z,2.67
2023-05-09T11:10:06.725Z,2.20
2023-05-09T11:12:33.352Z,2.45
2023-05-09T11:15:06.632Z,2.37
2023-05-09T11:17:38.271Z,2.20
2023-05-09T11:20:06.795Z,1.90
2023-05-09T11:22:41.854Z,2.60
2023-05-09T11:25:13.782Z,1.80
2023-05-09T11:27:46.127Z,1.90
2023-05-09T11:30:18.392Z,1.70
2023-05-09T11:32:57.930Z,1.90
2023-05-09T11:35:27.075Z,2.07
2023-05-09T11:38:00.321Z,1.90
2023-05-09T11:40:28.310Z,2.13
2023-05-09T11:42:58.559Z,1.87
2023-05-09T11:45:30.431Z,1.50
2023-05-09T11:47:57.756Z,1.77
2023-05-09T11:50:24.619Z,1.70
2023-05-09T11:52:51.286Z,1.63
2023-05-09T11:55:27.018Z,1.80
2023-05-09T11:57:55.272Z,1.40
2023-05-09T12:00:24.103Z,1.70
2023-05-09T12:02:51.700Z,1.40
2023-05-09T12:05:20.361Z,1.70
2023-05-09T12:07:47.702Z,1.73
2023-05-09T12:10:22.863Z,1.93
2023-05-09T12:12:51.861Z,1.80
2023-05-09T12:15:19.675Z,1.70
2023-05-09T12:17:49.577Z,1.80
2023-05-09T12:20:17.994Z,1.90
2023-05-09T12:22:44.762Z,1.57
2023-05-09T12:25:14.290Z,2.03
2023-05-09T12:27:42.724Z,1.50
2023-05-09T12:30:10.772Z,1.80
2023-05-09T12:32:40.009Z,1.53
2023-05-09T12:35:08.554Z,1.43
2023-05-09T12:37:35.285Z,1.40
2023-05-09T12:40:04.806Z,1.63
2023-05-09T12:42:32.324Z,1.43
2023-05-09T12:44:59.343Z,1.87
2023-05-09T12:47:31.183Z,1.80
2023-05-09T12:50:02.205Z,1.77
2023-05-09T12:52:54.552Z,2.03
2023-05-09T12:55:29.707Z,1.93
2023-05-09T12:58:01.429Z,1.90
2023-05-09T13:00:28.828Z,1.50
2023-05-09T13:02:55.646Z,1.80
2023-05-09T13:05:24.381Z,1.60
2023-05-09T13:07:52.401Z,1.73
2023-05-09T13:10:23.559Z,1.57
2023-05-09T13:12:51.265Z,1.60
2023-05-09T13:15:20.597Z,1.60
2023-05-09T13:17:48.654Z,1.50
2023-05-09T13:20:16.327Z,1.70
2023-05-09T13:22:46.327Z,1.60
2023-05-09T13:25:13.316Z,1.80
2023-05-09T13:27:40.005Z,1.80
2023-05-09T13:30:07.746Z,1.80
2023-05-09T13:32:36.342Z,1.90
2023-05-09T13:35:04.529Z,1.60
2023-05-09T13:37:31.229Z,1.80
2023-05-09T13:39:57.840Z,1.87
2023-05-09T13:42:24.573Z,1.40
2023-05-09T13:44:51.258Z,1.60
2023-05-09T13:47:17.924Z,1.70
2023-05-09T13:49:44.592Z,1.90
2023-05-09T13:52:11.349Z,1.57
2023-05-09T13:54:38.194Z,1.53
2023-05-09T13:57:05.041Z,1.60
2023-05-09T13:59:32.382Z,1.50
2023-05-09T14:02:00.542Z,1.60
2023-05-09T14:04:28.449Z,1.47
2023-05-09T14:06:56.028Z,2.10
2023-05-09T14:09:23.214Z,1.70
2023-05-09T14:11:53.580Z,1.90
2023-05-09T14:14:25.511Z,1.97
2023-05-09T14:16:52.557Z,1.50
2023-05-09T14:19:19.329Z,1.50
2023-05-09T14:21:47.206Z,1.53
2023-05-09T14:24:16.060Z,1.53
2023-05-09T14:26:43.274Z,1.70
2023-05-09T14:29:10.059Z,1.33
2023-05-09T14:31:36.913Z,1.57
2023-05-09T14:34:05.184Z,1.60
2023-05-09T14:36:32.679Z,1.40
2023-05-09T14:38:59.354Z,1.37
2023-05-09T14:41:26.737Z,1.50
2023-05-09T14:43:53.408Z,1.47
2023-05-09T14:46:20.212Z,1.70
2023-05-09T14:48:46.958Z,1.60
2023-05-09T14:51:14.150Z,1.70
2023-05-09T14:53:41.706Z,1.50
2023-05-09T14:56:10.263Z,1.57
2023-05-09T14:58:37.391Z,1.53
2023-05-09T15:01:04.400Z,1.60
2023-05-09T15:03:31.392Z,1.50
2023-05-09T15:05:58.668Z,1.80
2023-05-09T15:08:25.990Z,1.50
2023-05-09T15:10:52.807Z,1.53
2023-05-09T15:13:19.575Z,1.93
2023-05-09T15:15:46.330Z,1.70
2023-05-09T15:18:15.396Z,1.40
2023-05-09T15:20:42.577Z,1.60
2023-05-09T15:23:09.354Z,1.80
2023-05-09T15:25:38.499Z,1.60
2023-05-09T15:28:05.159Z,1.70
2023-05-09T15:30:31.910Z,1.87
2023-05-09T15:32:59.178Z,1.97
2023-05-09T15:35:27.495Z,1.80
2023-05-09T15:37:54.861Z,1.70
2023-05-09T15:40:21.539Z,1.60
2023-05-09T15:42:48.269Z,1.63
2023-05-09T15:45:15.765Z,1.93
2023-05-09T15:47:42.502Z,1.90
2023-05-09T15:50:09.880Z,1.80
2023-05-09T15:52:36.655Z,1.80
2023-05-09T15:55:03.581Z,1.80
2023-05-09T15:57:30.453Z,1.90
2023-05-09T15:59:57.055Z,1.70
2023-05-09T16:02:24.013Z,2.10
2023-05-09T16:04:50.928Z,1.83
2023-05-09T16:07:19.374Z,1.87
2023-05-09T16:09:46.257Z,1.80
2023-05-09T16:12:13.700Z,1.77
2023-05-09T16:14:40.430Z,2.23
2023-05-09T16:17:07.144Z,1.87
2023-05-09T16:19:36.716Z,1.83
2023-05-09T16:22:03.414Z,1.87
2023-05-09T16:24:31.750Z,1.90
2023-05-09T16:26:58.539Z,2.03
2023-05-09T16:29:25.334Z,1.90
2023-05-09T16:31:52.361Z,2.20
2023-05-09T16:34:18.991Z,2.10
2023-05-09T16:36:47.305Z,2.30
2023-05-09T16:39:14.004Z,2.30
2023-05-09T16:41:40.773Z,1.70
2023-05-09T16:44:07.385Z,1.90
2023-05-09T16:46:33.985Z,2.20
2023-05-09T16:49:00.603Z,2.20
2023-05-09T16:51:27.758Z,2.30
2023-05-09T16:53:54.382Z,2.20
2023-05-09T16:56:21.512Z,2.40
2023-05-09T16:58:49.259Z,2.30
2023-05-09T17:01:16.041Z,2.87
2023-05-09T17:03:42.742Z,2.10
2023-05-09T17:06:10.269Z,2.43
2023-05-09T17:08:36.876Z,2.37
2023-05-09T17:11:04.447Z,2.67
2023-05-09T17:13:31.198Z,2.53
2023-05-09T17:15:57.939Z,2.10
2023-05-09T17:18:36.048Z,2.20
2023-05-09T17:21:04.277Z,2.50
2023-05-09T17:23:30.997Z,2.10
2023-05-09T17:25:57.676Z,2.40
2023-05-09T17:28:24.318Z,2.40
2023-05-09T17:30:51.215Z,2.17
2023-05-09T17:33:17.834Z,2.40
2023-05-09T17:35:44.434Z,2.17
2023-05-09T17:38:11.069Z,2.23
2023-05-09T17:40:38.022Z,2.17
2023-05-09T17:43:04.692Z,2.17
2023-05-09T17:45:31.421Z,2.53
2023-05-09T17:47:59.709Z,2.37
2023-05-09T17:50:26.801Z,2.27
2023-05-09T17:52:54.211Z,2.60
2023-05-09T17:55:21.816Z,2.77
2023-05-09T17:57:48.453Z,2.40
2023-05-09T18:00:16.315Z,2.30
2023-05-09T18:02:43.791Z,2.20
2023-05-09T18:05:11.132Z,2.40
2023-05-09T18:07:39.878Z,2.63
2023-05-09T18:10:07.785Z,2.47
2023-05-09T18:12:37.257Z,2.23
2023-05-09T18:15:04.863Z,2.57
2023-05-09T18:17:31.679Z,2.17
2023-05-09T18:19:58.410Z,2.47
2023-05-09T18:22:25.065Z,2.47
2023-05-09T18:24:52.618Z,2.30
2023-05-09T18:27:19.343Z,2.60
2023-05-09T18:29:47.352Z,2.47
2023-05-09T18:32:14.134Z,2.30
2023-05-09T18:34:40.938Z,2.43
2023-05-09T18:37:07.714Z,2.53
2023-05-09T18:39:34.371Z,2.43
2023-05-09T18:42:00.993Z,2.17
2023-05-09T18:44:27.650Z,2.20
2023-05-09T18:46:54.283Z,2.40
2023-05-09T18:49:21.152Z,2.20
2023-05-09T18:51:48.293Z,2.47
2023-05-09T18:54:14.964Z,2.20
2023-05-09T18:56:42.301Z,2.20
2023-05-09T18:59:11.881Z,2.00
2023-05-09T19:01:38.849Z,2.63
2023-05-09T19:04:07.098Z,2.50
2023-05-09T19:06:33.840Z,2.50
2023-05-09T19:09:02.700Z,2.30
2023-05-09T19:11:29.418Z,4.07
2023-05-09T19:13:56.239Z,6.73
2023-05-09T19:16:24.604Z,10.03
2023-05-09T19:18:51.241Z,11.93
2023-05-09T19:21:18.734Z,9.43
2023-05-09T19:23:48.940Z,7.47
2023-05-09T19:26:18.018Z,5.90
2023-05-09T19:28:46.286Z,4.17
2023-05-09T19:31:14.082Z,4.07
2023-05-09T19:33:41.878Z,4.20
2023-05-09T19:36:08.520Z,7.30
2023-05-09T19:38:35.281Z,7.60
2023-05-09T19:41:02.002Z,10.00
2023-05-09T19:43:29.145Z,11.70
2023-05-09T19:45:56.176Z,11.27
2023-05-09T19:48:22.847Z,10.33
2023-05-09T19:50:49.478Z,8.27
2023-05-09T19:53:16.216Z,6.17
2023-05-09T19:55:46.688Z,4.60
2023-05-09T19:58:17.464Z,4.10
2023-05-09T20:00:44.728Z,3.17
2023-05-09T20:03:11.509Z,3.30
2023-05-09T20:05:38.284Z,2.50
2023-05-09T20:08:05.050Z,2.60
2023-05-09T20:10:32.902Z,2.80
2023-05-09T20:13:00.852Z,3.07
2023-05-09T20:15:28.842Z,3.07
2023-05-09T20:17:55.996Z,3.00
2023-05-09T20:20:23.295Z,2.60
2023-05-09T20:22:50.830Z,2.80
2023-05-09T20:25:17.434Z,2.80
2023-05-09T20:27:44.073Z,2.47
2023-05-09T20:30:11.414Z,2.70
2023-05-09T20:32:38.092Z,2.53
2023-05-09T20:35:05.075Z,2.77
2023-05-09T20:37:31.762Z,2.80
2023-05-09T20:39:58.520Z,2.70
2023-05-09T20:42:25.600Z,3.17
2023-05-09T20:44:54.580Z,2.77
2023-05-09T20:47:21.331Z,2.60
2023-05-09T20:49:47.956Z,2.90
2023-05-09T20:52:14.642Z,3.20
2023-05-09T20:54:41.795Z,3.03
2023-05-09T20:57:08.652Z,2.80
2023-05-09T20:59:35.411Z,3.27
2023-05-09T21:02:02.684Z,3.20
2023-05-09T21:04:29.437Z,3.20
2023-05-09T21:06:56.201Z,2.83
2023-05-09T21:09:22.857Z,2.87
2023-05-09T21:11:49.453Z,3.40
2023-05-09T21:14:16.215Z,3.07
2023-05-09T21:16:43.896Z,3.03
2023-05-09T21:19:10.807Z,2.77
2023-05-09T21:21:37.463Z,2.80
2023-05-09T21:24:08.801Z,2.90
2023-05-09T21:26:36.258Z,2.80
2023-05-09T21:29:02.987Z,2.87
2023-05-09T21:31:29.709Z,3.10
2023-05-09T21:33:56.514Z,3.07
2023-05-09T21:36:23.111Z,2.83
2023-05-09T21:38:49.773Z,3.20
2023-05-09T21:41:16.827Z,3.13
2023-05-09T21:43:43.455Z,3.13
2023-05-09T21:46:10.420Z,2.97
2023-05-09T21:48:37.087Z,3.13
2023-05-09T21:51:04.325Z,3.30
2023-05-09T21:53:31.098Z,3.73
2023-05-09T21:55:57.747Z,3.63
2023-05-09T21:58:24.451Z,3.70
2023-05-09T22:00:51.436Z,3.67
2023-05-09T22:03:18.176Z,3.70
2023-05-09T22:05:45.087Z,3.50
2023-05-09T22:08:11.764Z,3.80
2023-05-09T22:10:38.416Z,3.63
2023-05-09T22:13:05.358Z,3.73
2023-05-09T22:15:32.168Z,4.23
2023-05-09T22:17:59.506Z,3.90
2023-05-09T22:20:26.262Z,3.60
2023-05-09T22:22:52.956Z,4.03
2023-05-09T22:25:19.603Z,4.00
2023-05-09T22:27:46.402Z,4.20
2023-05-09T22:30:13.418Z,3.70
2023-05-09T22:32:41.371Z,4.50
2023-05-09T22:35:08.617Z,4.57
2023-05-09T22:37:35.259Z,4.17
2023-05-09T22:40:01.955Z,4.53
2023-05-09T22:42:29.300Z,5.10
2023-05-09T22:44:56.053Z,4.80
2023-05-09T22:47:22.766Z,5.10
2023-05-09T22:49:50.291Z,5.07
2023-05-09T22:52:17.107Z,4.53
2023-05-09T22:54:43.861Z,4.70
2023-05-09T22:57:10.675Z,4.73
2023-05-09T22:59:37.341Z,4.53
2023-05-09T23:02:04.671Z,5.20
2023-05-09T23:04:31.366Z,4.20
2023-05-09T23:06:58.044Z,4.00
2023-05-09T23:09:24.688Z,3.97
2023-05-09T23:11:51.793Z,4.20
2023-05-09T23:14:18.519Z,4.40
2023-05-09T23:16:45.175Z,4.40
2023-05-09T23:19:11.860Z,4.80
2023-05-09T23:21:38.498Z,4.00
2023-05-09T23:24:05.444Z,3.90
2023-05-09T23:26:32.860Z,4.27
2023-05-09T23:28:59.500Z,3.90
2023-05-09T23:31:26.174Z,4.57
2023-05-09T23:33:53.010Z,3.90
2023-05-09T23:36:19.680Z,4.17
2023-05-09T23:38:46.319Z,4.07
2023-05-09T23:41:13.238Z,4.17
2023-05-09T23:43:40.009Z,4.17
2023-05-09T23:46:06.719Z,3.60
2023-05-09T23:48:33.495Z,4.00
2023-05-09T23:51:00.476Z,3.90
2023-05-09T23:53:27.212Z,4.40
2023-05-09T23:55:53.820Z,4.10
2023-05-09T23:58:20.558Z,4.27
